Kendall, WI (54638)

12:59 PM CDT on July 27, 2016 (GMT -0500)
Buzzards Roost | | Change Station

Elev 1066 ft 43.79 °N, 90.37 °W | Updated 12 seconds ago

Mostly Cloudy
Mostly Cloudy
83.1 °F
Feels Like 86 °F
N
2.7
Wind Variable Wind from South
Gusts 4.9 mph

Today
High -- | Low -- °F
--% Chance of Precip.
Yesterday
High -- | Low -- °F
Precip. -- in
Pressure 30.00 in
Visibility 10.0 miles
Clouds Scattered Clouds 3500 ft
Mostly Cloudy 15000 ft
Heat Index 86 °F
Dew Point 67 °F
Humidity 59%
Rainfall 0.00 in
Snow Depth Not available.
5:45 AM 8:30 PM
Last Quarter, 41% visible
METAR KVOK 271658Z 28004KT 10SM SCT035 BKN150 27/22 A3000 RMK AO2A CB DSNT NE MOV SE TCU DSNT N SLP158
Pressure 30.00 in
Visibility 10.0 miles
Clouds Scattered Clouds 3500 ft
Mostly Cloudy 15000 ft
Heat Index 86 °F
Dew Point 67 °F
Humidity 59%
Rainfall 0.00 in
Snow Depth Not available.
5:45 AM 8:30 PM
Last Quarter, 41% visible
METAR KVOK 271658Z 28004KT 10SM SCT035 BKN150 27/22 A3000 RMK AO2A CB DSNT NE MOV SE TCU DSNT N SLP158

10-Day Weather Forecast

Almanac

Astronomy

Jul. 27, 2016 Rise Set
Actual Time
Civil Twilight
Nautical Twilight
Astronomical Twilight
Moon
Length of Visible Light
Length of Day
Tomorrow will be .
, % of the Moon is Illuminated

Today's Extremes

State Highs State Lows

Community

WunderPhotos

Upload Photos

1,927,889 photos uploaded!

WunderBlog® & News

Nearby

Air Quality

  Air Quality AQ Index Pollutant
Not available.

Snow Depth

Station Depth Elevation

Earthquake Activity

City Distance Mag. Time & Date
Minimum magnitude displayed is 2.5.

Coastal Water Temperatures

Place Temperature

Stations

Nearby Weather Stations

Station Location Temp. Windchill Dew Point Humidity Wind Precip. Elev Updated Type
                   

Watches & Warnings

There are currently no watches in effect.